Time;durP1;ratioP1;P1;durP2;ratioP2;P2;SDS_P1;SDS_P2;PMS_P1;PMS_P2;Temp;Humidity;BMP_temperature;BMP_pressure;BME280_temperature;BME280_humidity;BME280_pressure;Samples;Min_cycle;Max_cycle;Signal;HPM_P1;HPM_P2
2021/08/14 00:00:07;;;;;;;16.92;6.65;;;;;;;19.72;85.45;96175.91;5049890;28;20120;-79
2021/08/14 00:02:53;;;;;;;22.52;6.75;;;;;;;19.70;85.88;96167.44;5045973;28;20056;-80
2021/08/14 00:05:18;;;;;;;13.65;6.38;;;;;;;19.61;85.87;96171.97;5048694;28;20539;-79
2021/08/14 00:07:44;;;;;;;16.45;6.50;;;;;;;19.61;85.97;96170.09;5042338;28;20498;-79
2021/08/14 00:10:10;;;;;;;15.05;6.90;;;;;;;19.58;86.40;96175.25;5050821;28;20099;-79
2021/08/14 00:12:35;;;;;;;16.80;6.25;;;;;;;19.48;86.29;96166.47;5050414;28;20041;-80
2021/08/14 00:15:02;;;;;;;13.00;6.03;;;;;;;19.45;87.00;96171.63;5037183;28;20038;-79
2021/08/14 00:17:27;;;;;;;13.63;6.70;;;;;;;19.41;87.32;96171.47;5042549;28;20052;-79
2021/08/14 00:19:53;;;;;;;15.77;6.45;;;;;;;19.45;86.96;96167.09;5051127;28;20037;-80
2021/08/14 00:22:19;;;;;;;14.32;6.13;;;;;;;19.44;86.86;96165.50;5051162;28;20045;-81
2021/08/14 00:24:44;;;;;;;15.20;6.40;;;;;;;19.52;86.49;96170.09;5032202;28;20514;-78
2021/08/14 00:27:09;;;;;;;13.85;6.05;;;;;;;19.58;86.33;96169.94;5045992;28;20045;-79
2021/08/14 00:29:36;;;;;;;11.50;6.13;;;;;;;19.51;86.91;96165.03;5050782;28;20041;-81
2021/08/14 00:32:01;;;;;;;16.75;6.28;;;;;;;19.59;86.34;96171.50;5046459;28;20068;-80
2021/08/14 00:34:27;;;;;;;21.88;6.88;;;;;;;19.56;86.71;96173.69;5030945;28;20069;-80
2021/08/14 00:36:53;;;;;;;17.55;6.47;;;;;;;19.53;86.54;96163.63;5044517;28;20087;-79
2021/08/14 00:39:18;;;;;;;15.68;6.75;;;;;;;19.52;87.32;96162.09;5049622;28;20099;-79
2021/08/14 00:41:44;;;;;;;9.02;6.05;;;;;;;19.46;86.27;96152.63;5049641;28;20474;-79
2021/08/14 00:44:10;;;;;;;15.25;5.88;;;;;;;19.38;87.64;96156.09;5045215;28;20060;-80
2021/08/14 00:46:37;;;;;;;14.68;6.22;;;;;;;19.30;87.88;96154.16;5049788;28;20090;-79
2021/08/14 00:49:03;;;;;;;14.45;6.70;;;;;;;19.27;88.14;96160.13;5043289;28;20091;-79
2021/08/14 00:51:29;;;;;;;14.10;6.15;;;;;;;19.17;87.64;96151.28;5036335;28;20037;-80
2021/08/14 00:53:54;;;;;;;16.02;6.03;;;;;;;19.16;87.94;96149.72;5057143;28;20052;-79
2021/08/14 00:56:26;;;;;;;11.27;5.82;;;;;;;19.17;88.00;96153.97;5058414;28;20048;-80
2021/08/14 00:58:51;;;;;;;12.55;5.75;;;;;;;19.13;87.92;96150.31;5059891;28;20037;-81
2021/08/14 01:01:18;;;;;;;12.48;5.80;;;;;;;19.13;88.17;96155.66;5058767;28;20075;-80
2021/08/14 01:03:45;;;;;;;16.35;6.20;;;;;;;19.32;87.31;96151.97;5051812;28;20048;-79
2021/08/14 01:06:17;;;;;;;17.20;6.55;;;;;;;19.44;86.21;96159.38;5057975;28;20052;-79
2021/08/14 01:08:43;;;;;;;17.55;7.10;;;;;;;19.47;86.15;96159.53;5058278;28;20045;-79
2021/08/14 01:11:11;;;;;;;15.18;6.50;;;;;;;19.58;85.63;96153.91;5049236;28;20067;-78
2021/08/14 01:13:36;;;;;;;17.30;6.00;;;;;;;19.33;86.28;96154.31;5042368;28;20066;-79
2021/08/14 01:16:04;;;;;;;20.10;6.68;;;;;;;19.27;86.20;96162.78;5047862;28;20085;-79
2021/08/14 01:18:30;;;;;;;16.85;6.65;;;;;;;19.30;87.12;96154.94;5048802;28;20048;-79
2021/08/14 01:20:55;;;;;;;16.98;6.70;;;;;;;19.54;85.05;96159.09;5058044;28;20041;-82
2021/08/14 01:23:21;;;;;;;20.02;6.78;;;;;;;19.43;85.63;96169.25;5040149;28;20528;-79
2021/08/14 01:26:00;;;;;;;20.23;6.25;;;;;;;19.44;85.87;96160.16;5050955;28;20037;-80
2021/08/14 01:28:26;;;;;;;18.27;6.13;;;;;;;19.34;86.45;96160.47;5058518;28;20565;-80
2021/08/14 01:30:51;;;;;;;14.70;6.50;;;;;;;19.51;85.51;96160.50;5045133;28;20054;-79
2021/08/14 01:33:17;;;;;;;14.52;6.35;;;;;;;19.58;85.56;96159.25;5047105;28;20454;-79
2021/08/14 01:35:44;;;;;;;18.50;6.68;;;;;;;19.69;84.92;96160.53;5050140;28;20052;-79
2021/08/14 01:38:09;;;;;;;14.98;6.32;;;;;;;19.69;84.86;96160.53;5056842;28;20106;-80
2021/08/14 01:40:35;;;;;;;15.65;6.95;;;;;;;19.82;84.35;96164.97;5047566;28;20459;-79
2021/08/14 01:43:00;;;;;;;18.80;6.75;;;;;;;19.86;84.30;96165.91;5050030;28;20045;-80
2021/08/14 01:45:26;;;;;;;18.70;7.20;;;;;;;19.82;84.04;96159.63;5051349;28;20037;-80
2021/08/14 01:47:51;;;;;;;18.02;6.68;;;;;;;19.81;83.95;96158.06;5052765;28;20037;-80
2021/08/14 01:50:17;;;;;;;14.23;6.53;;;;;;;19.85;83.65;96153.66;5051227;28;20044;-79
2021/08/14 01:52:42;;;;;;;14.70;6.00;;;;;;;19.93;84.00;96160.13;5054112;28;20044;-80
2021/08/14 01:55:08;;;;;;;15.40;6.47;;;;;;;19.95;83.21;96157.13;5045489;28;20041;-79
2021/08/14 01:57:34;;;;;;;18.20;6.20;;;;;;;19.82;83.76;96154.28;5037511;28;20045;-78
2021/08/14 01:59:59;;;;;;;18.85;6.38;;;;;;;19.89;83.65;96149.25;5056749;28;20048;-79
2021/08/14 02:02:25;;;;;;;15.05;6.82;;;;;;;19.86;84.12;96149.13;5053312;28;20041;-79
2021/08/14 02:04:50;;;;;;;18.50;7.07;;;;;;;19.85;83.79;96148.31;5052420;28;20045;-78
2021/08/14 02:07:16;;;;;;;20.95;6.85;;;;;;;19.84;83.57;96148.63;5058339;28;20063;-80
2021/08/14 02:09:41;;;;;;;17.98;7.18;;;;;;;19.69;83.92;96155.19;5058598;28;20092;-79
2021/08/14 02:12:07;;;;;;;16.17;6.82;;;;;;;19.63;84.87;96156.44;5053110;28;20066;-80
2021/08/14 02:14:32;;;;;;;13.05;6.35;;;;;;;19.64;85.93;96155.31;5057503;28;20490;-80
2021/08/14 02:16:58;;;;;;;18.75;6.25;;;;;;;19.54;85.38;96159.88;5053290;28;20045;-79
2021/08/14 02:19:23;;;;;;;18.70;7.35;;;;;;;19.50;85.71;96169.59;5053271;28;20068;-80
2021/08/14 02:21:49;;;;;;;14.35;6.50;;;;;;;19.58;85.73;96169.94;5056666;28;20422;-80
2021/08/14 02:24:14;;;;;;;14.05;6.63;;;;;;;19.64;85.52;96168.66;5057795;28;20045;-80
2021/08/14 02:26:40;;;;;;;18.73;6.60;;;;;;;19.66;85.10;96171.84;5056872;28;20070;-81
2021/08/14 02:29:06;;;;;;;20.67;6.68;;;;;;;19.77;84.58;96167.78;5052783;28;20063;-79
2021/08/14 02:31:31;;;;;;;18.35;7.20;;;;;;;19.69;83.82;96165.88;5048997;28;20040;-79
2021/08/14 02:33:58;;;;;;;20.42;7.47;;;;;;;19.67;84.30;96168.06;5039902;28;20510;-79
2021/08/14 02:36:23;;;;;;;17.73;6.97;;;;;;;19.76;84.59;96160.06;5052317;28;20041;-80
2021/08/14 02:38:49;;;;;;;15.80;7.13;;;;;;;19.61;85.79;96158.63;5052578;28;20052;-80
2021/08/14 02:41:15;;;;;;;18.15;6.85;;;;;;;19.56;86.15;96162.22;5053364;28;20075;-79
2021/08/14 02:43:40;;;;;;;14.02;6.90;;;;;;;19.43;86.80;96163.94;5039926;28;20099;-79
2021/08/14 02:46:06;;;;;;;22.35;7.50;;;;;;;19.63;85.49;96161.78;5054141;28;20065;-79
2021/08/14 02:48:32;;;;;;;13.48;6.47;;;;;;;19.43;86.43;96163.16;5056291;28;20044;-79
2021/08/14 02:50:57;;;;;;;14.23;6.43;;;;;;;19.36;86.39;96153.69;5045593;28;20037;-79
2021/08/14 02:53:23;;;;;;;17.00;6.82;;;;;;;19.15;87.04;96150.81;5053299;28;20486;-80
2021/08/14 02:55:49;;;;;;;15.63;6.82;;;;;;;18.92;88.23;96154.63;5053733;28;20780;-79
2021/08/14 02:58:15;;;;;;;14.80;6.13;;;;;;;18.96;88.52;96158.25;5037771;28;20036;-79
2021/08/14 03:00:40;;;;;;;14.68;6.78;;;;;;;19.03;87.61;96151.38;5037748;28;20685;-79
2021/08/14 03:03:06;;;;;;;15.40;6.95;;;;;;;18.86;88.49;96162.78;5048198;28;20050;-80
2021/08/14 03:05:32;;;;;;;12.05;6.45;;;;;;;18.77;89.64;96159.25;5051585;28;20037;-79
2021/08/14 03:07:58;;;;;;;15.93;6.85;;;;;;;19.00;88.28;96161.91;5053357;28;20048;-80
2021/08/14 03:10:24;;;;;;;19.50;7.10;;;;;;;18.97;88.21;96157.19;5050734;28;20056;-80
2021/08/14 03:12:49;;;;;;;16.35;7.43;;;;;;;18.89;88.93;96160.59;5051125;28;20400;-80
2021/08/14 03:15:15;;;;;;;19.48;7.25;;;;;;;18.92;88.37;96154.63;5053368;28;20122;-80
2021/08/14 03:17:40;;;;;;;15.13;6.32;;;;;;;18.82;88.75;96151.13;5054216;28;20072;-79
2021/08/14 03:20:07;;;;;;;13.32;6.72;;;;;;;18.74;88.51;96153.75;5043722;28;20049;-79
2021/08/14 03:22:33;;;;;;;12.18;6.78;;;;;;;18.81;88.73;96154.88;5034852;28;20038;-80
2021/08/14 03:24:58;;;;;;;13.95;6.82;;;;;;;18.60;89.02;96153.81;5055654;28;20052;-79
2021/08/14 03:27:24;;;;;;;12.02;6.80;;;;;;;18.63;89.30;96153.22;5054086;28;20068;-79
2021/08/14 03:29:49;;;;;;;12.80;6.80;;;;;;;18.49;89.79;96146.09;5052496;28;20118;-80
2021/08/14 03:32:16;;;;;;;13.38;6.88;;;;;;;18.42;89.86;96153.72;5046840;28;20048;-80
2021/08/14 03:34:42;;;;;;;13.02;6.57;;;;;;;18.42;90.10;96142.25;5052665;28;20056;-79
2021/08/14 03:37:07;;;;;;;15.82;6.80;;;;;;;18.33;90.37;96144.88;5051196;28;20040;-80
2021/08/14 03:39:36;;;;;;;14.50;6.28;;;;;;;18.29;90.21;96143.94;5049757;28;20418;-80
2021/08/14 03:42:01;;;;;;;15.00;6.90;;;;;;;18.33;90.13;96150.19;5049045;28;20698;-80
2021/08/14 03:44:27;;;;;;;13.70;6.97;;;;;;;18.12;90.85;96156.00;5049434;28;20048;-80
2021/08/14 03:46:52;;;;;;;16.05;7.07;;;;;;;18.12;90.97;96153.34;5051885;28;20441;-80
2021/08/14 03:49:19;;;;;;;17.45;7.55;;;;;;;18.23;90.96;96145.13;5048472;28;20044;-79
2021/08/14 03:51:45;;;;;;;15.95;6.78;;;;;;;18.20;90.85;96145.72;5048270;28;20056;-79
2021/08/14 03:54:10;;;;;;;15.30;7.00;;;;;;;18.15;90.81;96155.41;5050265;28;20275;-80
2021/08/14 03:56:36;;;;;;;16.70;6.72;;;;;;;18.20;91.01;96156.38;5051159;28;20418;-79
2021/08/14 03:59:01;;;;;;;11.55;6.78;;;;;;;18.10;90.58;96150.22;5048384;28;20545;-79
2021/08/14 04:01:27;;;;;;;12.85;6.57;;;;;;;18.03;90.96;96151.69;5043312;28;20040;-79
2021/08/14 04:03:52;;;;;;;14.07;6.60;;;;;;;17.99;91.53;96151.53;5047810;28;20395;-79
2021/08/14 04:06:18;;;;;;;12.73;6.82;;;;;;;18.00;91.04;96155.75;5049111;28;20095;-79
2021/08/14 04:08:43;;;;;;;13.77;6.78;;;;;;;17.94;91.85;96154.28;5050016;28;20037;-80
2021/08/14 04:11:09;;;;;;;16.05;7.40;;;;;;;17.97;91.51;96153.69;5041758;28;20046;-79
2021/08/14 04:13:35;;;;;;;14.70;6.70;;;;;;;17.94;91.61;96154.28;5039421;28;20121;-80
2021/08/14 04:16:01;;;;;;;12.77;6.53;;;;;;;18.01;91.33;96160.00;5044429;28;20518;-79
2021/08/14 04:18:27;;;;;;;13.90;7.25;;;;;;;17.91;92.04;96160.22;5048490;28;20095;-80
2021/08/14 04:20:53;;;;;;;12.77;6.93;;;;;;;17.73;92.79;96160.03;5047961;28;20036;-79
2021/08/14 04:23:18;;;;;;;12.82;6.68;;;;;;;17.76;92.27;96159.44;5050335;28;20576;-79
2021/08/14 04:25:44;;;;;;;12.82;6.88;;;;;;;17.81;92.28;96166.53;5049678;28;20383;-80
2021/08/14 04:28:09;;;;;;;10.82;6.78;;;;;;;17.75;92.77;96168.50;5045659;28;20045;-79
2021/08/14 04:30:35;;;;;;;13.77;6.88;;;;;;;17.81;92.44;96172.66;5043284;28;20041;-79
2021/08/14 04:33:00;;;;;;;13.85;6.53;;;;;;;17.78;92.06;96170.56;5039708;28;20041;-80
2021/08/14 04:35:26;;;;;;;14.23;7.10;;;;;;;17.77;92.12;96174.34;5033487;28;20034;-80
2021/08/14 04:37:51;;;;;;;14.93;6.65;;;;;;;17.74;92.79;96166.94;5054945;28;20041;-79
2021/08/14 04:40:17;;;;;;;16.92;7.20;;;;;;;17.84;92.02;96177.38;5051509;28;20094;-79
2021/08/14 04:42:43;;;;;;;11.68;6.65;;;;;;;17.74;92.12;96177.59;5049227;28;20702;-79
2021/08/14 04:45:10;;;;;;;16.50;7.38;;;;;;;17.73;92.26;96180.53;5049979;28;20045;-79
2021/08/14 04:47:36;;;;;;;17.58;7.10;;;;;;;17.72;92.66;96178.97;5031766;28;20041;-79
2021/08/14 04:50:02;;;;;;;16.83;7.63;;;;;;;17.77;93.14;96184.97;5033120;28;20509;-78
2021/08/14 04:52:27;;;;;;;14.15;6.63;;;;;;;17.88;92.63;96184.75;5052849;28;20049;-79
2021/08/14 04:54:53;;;;;;;13.88;7.07;;;;;;;17.72;92.99;96190.41;5050867;28;20498;-79
2021/08/14 04:57:18;;;;;;;18.33;6.90;;;;;;;17.75;92.93;96181.81;5046542;28;20041;-79
2021/08/14 04:59:44;;;;;;;17.05;7.97;;;;;;;17.95;92.51;96185.16;5050256;28;20414;-79
2021/08/14 05:02:10;;;;;;;14.43;7.15;;;;;;;18.03;91.99;96184.47;5044106;28;20045;-78
2021/08/14 05:04:35;;;;;;;14.65;7.38;;;;;;;18.06;91.93;96183.84;5037081;28;20453;-80
2021/08/14 05:07:01;;;;;;;13.23;7.25;;;;;;;18.07;92.09;96185.41;5049179;28;20048;-78
2021/08/14 05:09:27;;;;;;;19.15;7.50;;;;;;;18.14;92.26;96191.13;5052942;28;20072;-79
2021/08/14 05:11:53;;;;;;;13.82;7.18;;;;;;;18.05;93.21;96182.28;5041816;28;20080;-80
2021/08/14 05:14:19;;;;;;;17.17;7.55;;;;;;;18.24;92.30;96194.66;5034464;28;20037;-78
2021/08/14 05:16:44;;;;;;;17.13;7.60;;;;;;;18.42;91.37;96195.56;5048284;28;20045;-78
2021/08/14 05:19:10;;;;;;;15.65;8.20;;;;;;;18.51;90.80;96189.19;5047860;28;20497;-79
2021/08/14 05:21:36;;;;;;;13.23;7.70;;;;;;;18.56;90.36;96179.50;5046089;28;20041;-78
2021/08/14 05:24:03;;;;;;;20.27;8.18;;;;;;;18.64;89.73;96181.44;5047401;28;20052;-81
2021/08/14 05:26:30;;;;;;;14.50;7.47;;;;;;;18.79;88.83;96178.41;5045456;28;20423;-80
2021/08/14 05:28:55;;;;;;;15.63;7.50;;;;;;;18.91;88.08;96177.09;5046213;28;20041;-80
2021/08/14 05:31:21;;;;;;;16.83;6.93;;;;;;;18.87;89.18;96175.00;5049644;28;20081;-81
2021/08/14 05:33:46;;;;;;;21.45;7.35;;;;;;;18.97;88.67;96178.50;5033184;28;20495;-80
2021/08/14 05:36:12;;;;;;;16.40;7.70;;;;;;;19.07;87.15;96178.25;5049454;28;20041;-80
2021/08/14 05:38:38;;;;;;;16.88;6.88;;;;;;;19.07;87.37;96185.47;5047348;28;20051;-81
2021/08/14 05:41:05;;;;;;;16.05;6.82;;;;;;;19.14;87.22;96194.59;5048830;28;20070;-82
2021/08/14 05:43:32;;;;;;;16.23;7.68;;;;;;;19.11;86.39;96184.53;5053491;28;20045;-80
2021/08/14 05:45:57;;;;;;;12.85;6.95;;;;;;;19.08;86.54;96195.84;5048432;28;20044;-82
2021/08/14 05:48:23;;;;;;;18.30;6.90;;;;;;;19.30;85.92;96202.97;5037289;28;20045;-80
2021/08/14 05:50:48;;;;;;;12.35;6.90;;;;;;;19.46;86.04;96200.66;5040718;28;20076;-81
2021/08/14 05:53:15;;;;;;;15.00;7.80;;;;;;;19.62;85.44;96197.56;5052479;28;20068;-81
2021/08/14 05:55:40;;;;;;;20.10;7.10;;;;;;;19.60;85.01;96205.13;5050884;28;20116;-81
2021/08/14 05:58:06;;;;;;;14.20;7.32;;;;;;;19.80;84.28;96199.22;5052521;28;20036;-80
2021/08/14 06:00:32;;;;;;;17.08;6.80;;;;;;;19.97;83.37;96197.66;5046707;28;20038;-80
2021/08/14 06:02:57;;;;;;;13.77;6.95;;;;;;;19.85;83.26;96191.03;5038030;28;20092;-79
2021/08/14 06:05:23;;;;;;;12.88;6.55;;;;;;;19.97;83.29;96192.31;5049329;28;20041;-79
2021/08/14 06:07:50;;;;;;;14.82;6.40;;;;;;;19.97;83.46;96189.66;5042837;28;20045;-82
2021/08/14 06:10:17;;;;;;;15.10;7.10;;;;;;;19.87;83.43;96188.09;5043918;28;20038;-80
2021/08/14 06:12:44;;;;;;;12.88;6.80;;;;;;;19.88;84.21;96184.28;5044837;28;20041;-82
2021/08/14 06:15:11;;;;;;;14.65;6.85;;;;;;;20.10;84.27;96186.06;5050263;28;20041;-81
2021/08/14 06:17:36;;;;;;;14.25;7.03;;;;;;;19.98;85.27;96183.22;5049417;28;20049;-80
2021/08/14 06:20:04;;;;;;;12.52;6.70;;;;;;;19.92;84.79;96181.81;5035973;28;20053;-81
2021/08/14 06:22:29;;;;;;;12.38;6.45;;;;;;;20.17;83.43;96185.56;5032700;28;20061;-80
2021/08/14 06:24:55;;;;;;;17.20;6.93;;;;;;;20.32;82.57;96182.44;5052541;28;20049;-81
2021/08/14 06:27:21;;;;;;;12.93;6.05;;;;;;;20.40;82.76;96183.50;5052788;28;20033;-81
2021/08/14 06:29:46;;;;;;;14.48;7.07;;;;;;;20.81;79.57;96179.56;5051564;28;20037;-80
2021/08/14 06:32:12;;;;;;;12.38;7.13;;;;;;;20.78;79.98;96177.50;5048565;28;20228;-80
2021/08/14 06:34:38;;;;;;;14.88;7.43;;;;;;;20.68;80.76;96183.22;5051798;28;20120;-79
2021/08/14 06:37:04;;;;;;;12.45;7.22;;;;;;;20.94;80.36;96181.22;5046437;28;20056;-80
2021/08/14 06:39:30;;;;;;;18.85;7.28;;;;;;;21.21;77.54;96178.47;5040697;28;20048;-82
2021/08/14 06:41:56;;;;;;;13.88;7.00;;;;;;;21.16;78.91;96176.78;5054236;28;20032;-81
2021/08/14 06:44:21;;;;;;;12.88;6.78;;;;;;;21.11;78.96;96179.63;5045391;28;20049;-81
2021/08/14 06:46:47;;;;;;;14.32;6.40;;;;;;;21.02;79.41;96187.69;5055500;28;20044;-81
2021/08/14 06:49:12;;;;;;;15.15;6.70;;;;;;;21.29;76.90;96186.47;5053646;28;20095;-81
2021/08/14 06:51:38;;;;;;;16.13;7.45;;;;;;;21.49;75.67;96184.16;5035840;28;20068;-81
2021/08/14 06:54:04;;;;;;;17.00;7.25;;;;;;;21.59;74.95;96189.19;5037990;28;20144;-82
2021/08/14 06:56:30;;;;;;;14.23;7.03;;;;;;;21.65;74.88;96197.03;5055171;28;20044;-81
2021/08/14 06:58:56;;;;;;;12.25;6.47;;;;;;;21.50;74.73;96185.72;5053986;28;20486;-81
2021/08/14 07:01:21;;;;;;;14.25;6.80;;;;;;;21.79;73.76;96186.84;5049757;28;20072;-80
2021/08/14 07:03:47;;;;;;;14.27;7.35;;;;;;;21.78;71.99;96185.31;5049195;28;20106;-82
2021/08/14 07:06:23;;;;;;;13.52;7.18;;;;;;;21.81;74.35;96192.69;5054265;28;20422;-81
2021/08/14 07:08:50;;;;;;;15.88;7.22;;;;;;;21.60;74.93;96190.75;5050176;28;20041;-81
2021/08/14 07:11:16;;;;;;;13.57;7.47;;;;;;;21.85;71.15;96190.94;5049042;28;20037;-82
2021/08/14 07:13:42;;;;;;;14.18;7.47;;;;;;;21.60;72.19;96196.09;5054419;28;20067;-80
2021/08/14 07:18:08;;;;;;;14.70;7.05;;;;;;;21.82;72.38;96186.19;5121115;27;1258649;-82
2021/08/14 07:20:33;;;;;;;14.02;6.90;;;;;;;22.00;71.07;96196.81;5129193;27;20030;-81
2021/08/14 07:22:59;;;;;;;11.15;7.72;;;;;;;21.97;71.10;96192.91;5138331;27;20043;-80
2021/08/14 07:25:24;;;;;;;12.20;6.90;;;;;;;21.78;71.33;96185.31;5148936;27;20127;-81
2021/08/14 07:27:51;;;;;;;12.45;7.35;;;;;;;21.59;74.15;96183.84;5151440;27;20043;-81
2021/08/14 07:30:17;;;;;;;12.88;7.35;;;;;;;21.67;73.90;96189.47;5131239;27;20049;-81
2021/08/14 07:32:43;;;;;;;11.50;7.18;;;;;;;21.85;73.47;96179.41;5137072;27;20039;-83
2021/08/14 07:35:09;;;;;;;12.93;7.40;;;;;;;22.06;71.14;96179.44;5148076;27;20072;-82
2021/08/14 07:37:34;;;;;;;13.90;7.60;;;;;;;22.25;72.54;96182.41;5149409;27;20656;-81
2021/08/14 07:40:00;;;;;;;15.45;7.95;;;;;;;22.47;69.67;96183.22;5149538;27;20060;-81
2021/08/14 07:42:25;;;;;;;13.57;7.57;;;;;;;22.48;70.18;96182.09;5142217;27;20042;-81
2021/08/14 07:44:51;;;;;;;12.63;7.18;;;;;;;22.42;70.13;96172.69;5146754;27;20054;-81
2021/08/14 07:47:16;;;;;;;14.30;7.60;;;;;;;22.16;74.55;96168.31;5131468;27;20047;-81
2021/08/14 07:49:42;;;;;;;13.65;7.32;;;;;;;22.56;70.10;96175.88;5138352;27;20043;-82
2021/08/14 07:52:08;;;;;;;14.65;8.10;;;;;;;22.55;70.54;96173.53;5147376;27;20043;-81
2021/08/14 07:54:34;;;;;;;10.63;6.97;;;;;;;22.18;72.82;96165.31;5151380;27;20070;-82
2021/08/14 07:57:00;;;;;;;15.15;7.45;;;;;;;22.05;72.87;96162.56;5148132;27;20108;-82
2021/08/14 07:59:25;;;;;;;13.95;8.02;;;;;;;22.01;74.82;96171.56;5129482;27;20484;-78
2021/08/14 08:01:51;;;;;;;14.02;7.90;;;;;;;21.93;72.81;96165.94;5137192;27;20043;-83
2021/08/14 08:04:16;;;;;;;9.82;7.03;;;;;;;21.95;74.92;96163.75;5141687;27;20039;-83
2021/08/14 08:06:42;;;;;;;11.77;7.20;;;;;;;22.45;69.86;96164.75;5139993;27;20601;-85
2021/08/14 08:09:07;;;;;;;13.73;7.43;;;;;;;22.70;68.95;96164.84;5130065;28;20051;-78
2021/08/14 08:11:33;;;;;;;13.95;7.82;;;;;;;22.82;68.80;96161.41;5129586;27;20046;-78
2021/08/14 08:13:58;;;;;;;10.70;7.00;;;;;;;22.74;69.75;96164.97;5144206;27;20040;-81
2021/08/14 08:16:24;;;;;;;11.00;6.85;;;;;;;22.66;68.97;96159.34;5130099;27;20548;-78
2021/08/14 08:18:50;;;;;;;11.05;6.82;;;;;;;23.21;64.72;96161.94;5136395;27;20045;-78
2021/08/14 08:21:15;;;;;;;10.07;6.50;;;;;;;23.17;65.04;96163.72;5148894;27;20600;-79
2021/08/14 08:23:41;;;;;;;12.40;6.90;;;;;;;22.94;66.40;96164.13;5149406;27;20110;-81
2021/08/14 08:26:06;;;;;;;12.85;6.53;;;;;;;23.28;61.19;96162.16;5143705;27;20071;-79
2021/08/14 08:28:32;;;;;;;9.95;6.38;;;;;;;23.29;60.45;96158.34;5126556;27;20760;-81
2021/08/14 08:30:57;;;;;;;12.32;7.07;;;;;;;23.25;62.51;96152.09;5115061;27;20043;-79
2021/08/14 08:33:23;;;;;;;13.80;6.97;;;;;;;23.01;62.86;96159.00;5131124;27;20403;-80
2021/08/14 08:35:48;;;;;;;10.95;7.07;;;;;;;23.27;62.70;96155.22;5120354;27;20575;-79
2021/08/14 08:38:14;;;;;;;10.15;6.70;;;;;;;23.22;62.69;96152.75;5116679;27;20059;-82
2021/08/14 08:40:41;;;;;;;11.32;7.30;;;;;;;23.02;63.14;96147.13;5118204;27;20110;-82
2021/08/14 08:43:08;;;;;;;13.13;7.20;;;;;;;23.12;64.29;96153.22;5117495;27;20365;-82
2021/08/14 08:45:34;;;;;;;13.15;7.57;;;;;;;23.07;64.83;96145.34;5118054;27;20412;-82
2021/08/14 08:48:03;;;;;;;11.93;7.50;;;;;;;23.04;64.62;96151.38;5121189;27;20501;-82
2021/08/14 08:50:29;;;;;;;10.88;6.93;;;;;;;22.97;67.43;96146.56;5124520;27;20665;-80
2021/08/14 08:52:55;;;;;;;11.88;7.45;;;;;;;22.92;67.22;96142.19;5115389;27;20082;-81
2021/08/14 08:55:23;;;;;;;15.25;7.20;;;;;;;23.77;61.01;96139.06;5116825;27;20543;-81
2021/08/14 08:57:48;;;;;;;9.18;6.82;;;;;;;23.47;62.17;96144.69;5121724;27;20813;-84
2021/08/14 09:00:18;;;;;;;13.35;7.00;;;;;;;23.35;61.99;96146.25;5132100;27;20043;-82
2021/08/14 09:02:45;;;;;;;13.95;6.70;;;;;;;23.57;59.45;96141.53;5125867;27;20107;-82
2021/08/14 09:05:20;;;;;;;8.77;6.40;;;;;;;23.96;59.04;96131.19;5125019;27;20046;-83
2021/08/14 09:07:47;;;;;;;11.38;6.70;;;;;;;23.75;59.92;96130.53;5121027;27;20051;-85
2021/08/14 09:10:21;;;;;;;13.30;6.85;;;;;;;23.60;58.91;96130.13;5117380;27;20096;-81
2021/08/14 09:12:47;;;;;;;13.13;7.22;;;;;;;23.85;59.59;96127.41;5114678;27;20051;-78
2021/08/14 09:15:19;;;;;;;12.38;7.28;;;;;;;23.98;59.57;96122.81;5117736;27;20104;-84
2021/08/14 09:17:46;;;;;;;12.23;7.28;;;;;;;23.97;60.18;96127.38;5126812;27;20051;-80
2021/08/14 09:20:12;;;;;;;11.60;7.50;;;;;;;23.92;60.29;96119.56;5111677;27;20051;-80
2021/08/14 09:22:39;;;;;;;14.88;7.13;;;;;;;24.62;56.88;96126.44;5112547;27;20055;-81
2021/08/14 09:25:19;;;;;;;12.90;7.32;;;;;;;24.68;59.10;96122.38;5121071;27;20051;-79
2021/08/14 09:28:03;;;;;;;11.25;7.20;;;;;;;24.54;56.88;96122.78;5126200;27;20055;-81
2021/08/14 09:30:54;;;;;;;12.98;7.50;;;;;;;24.48;59.05;96120.66;5124521;27;20046;-80
2021/08/14 09:33:23;;;;;;;11.68;7.55;;;;;;;24.50;59.20;96118.44;5129556;27;20047;-80
2021/08/14 09:36:00;;;;;;;12.07;7.72;;;;;;;24.54;58.82;96113.94;5122357;27;20039;-81
2021/08/14 09:38:45;;;;;;;13.48;7.85;;;;;;;24.50;57.90;96115.75;5119022;27;20039;-83
2021/08/14 09:41:18;;;;;;;16.58;8.07;;;;;;;24.47;58.00;96105.66;5127990;27;20039;-82
2021/08/14 09:43:45;;;;;;;14.90;7.22;;;;;;;24.46;57.78;96104.09;5116765;28;20031;-85
2021/08/14 09:46:11;;;;;;;14.23;8.07;;;;;;;24.51;57.31;96098.44;5123216;27;20067;-83
2021/08/14 09:48:37;;;;;;;12.52;8.23;;;;;;;24.54;59.17;96095.09;5115826;28;20544;-81
2021/08/14 09:51:04;;;;;;;11.48;7.43;;;;;;;24.78;58.17;96094.16;5126039;27;20574;-84
2021/08/14 09:53:30;;;;;;;15.35;8.15;;;;;;;25.08;57.16;96096.41;5145412;27;20039;-85
2021/08/14 09:56:11;;;;;;;14.93;7.72;;;;;;;24.96;59.88;96083.84;5147827;27;20061;-84
2021/08/14 09:58:39;;;;;;;15.88;7.88;;;;;;;24.99;61.29;96083.13;5112338;27;20043;-85
2021/08/14 10:01:07;;;;;;;14.70;7.60;;;;;;;25.46;56.68;96080.72;5116767;27;20047;-82
2021/08/14 10:03:33;;;;;;;20.85;8.32;;;;;;;25.41;56.40;96087.97;5123011;27;20485;-82
2021/08/14 10:06:01;;;;;;;12.88;7.55;;;;;;;25.86;54.85;96079.63;5122657;27;20036;-80
2021/08/14 10:08:28;;;;;;;16.42;8.45;;;;;;;25.87;54.50;96075.81;5124928;27;20027;-80
2021/08/14 10:10:55;;;;;;;14.57;7.70;;;;;;;26.09;54.20;96067.03;5120397;27;20039;-85
2021/08/14 10:13:22;;;;;;;15.68;8.07;;;;;;;26.45;53.56;96073.06;5123837;27;20043;-85
2021/08/14 10:15:48;;;;;;;12.50;7.63;;;;;;;26.66;55.08;96066.47;5118594;27;20071;-81
2021/08/14 10:18:18;;;;;;;12.73;7.40;;;;;;;26.78;51.58;96068.25;5119570;27;20703;-79
2021/08/14 10:20:45;;;;;;;12.98;7.53;;;;;;;26.56;53.65;96064.38;5117917;27;20042;-79
2021/08/14 10:23:12;;;;;;;15.07;7.32;;;;;;;26.83;53.41;96056.38;5118197;27;20122;-78
2021/08/14 10:25:42;;;;;;;14.23;7.20;;;;;;;27.02;52.51;96061.66;5118759;27;20039;-77
2021/08/14 10:28:08;;;;;;;14.60;7.72;;;;;;;27.25;50.80;96055.44;5117066;27;20638;-79
2021/08/14 10:30:41;;;;;;;17.08;8.30;;;;;;;27.43;50.14;96053.03;5124535;27;20677;-79
2021/08/14 10:33:28;;;;;;;14.13;7.70;;;;;;;27.51;50.53;96048.47;5121695;27;20036;-80
2021/08/14 10:35:55;;;;;;;14.05;7.30;;;;;;;27.55;49.25;96043.91;5123463;27;20035;-78
2021/08/14 10:38:36;;;;;;;14.45;8.20;;;;;;;27.88;49.50;96045.06;5128045;27;20130;-82
2021/08/14 10:41:03;;;;;;;21.40;8.07;;;;;;;27.95;49.21;96034.34;5128406;27;20051;-78
2021/08/14 10:43:54;;;;;;;22.77;8.07;;;;;;;28.27;48.06;96033.91;5125514;27;20325;-81
2021/08/14 10:46:43;;;;;;;14.20;8.57;;;;;;;28.58;49.36;96034.59;5125309;27;20055;-82
2021/08/14 10:49:11;;;;;;;15.50;7.78;;;;;;;28.65;46.83;96021.13;5118307;27;20062;-79
2021/08/14 10:51:50;;;;;;;11.43;8.00;;;;;;;29.01;47.58;96024.09;5126204;27;20088;-80
2021/08/14 10:54:27;;;;;;;17.58;8.10;;;;;;;29.65;46.56;96020.97;5122155;27;20043;-80
2021/08/14 10:56:55;;;;;;;13.20;8.30;;;;;;;29.88;44.34;96019.91;5126701;27;20078;-81
2021/08/14 10:59:39;;;;;;;13.30;7.68;;;;;;;30.03;45.08;96012.59;5120517;27;20054;-81
2021/08/14 11:02:08;;;;;;;13.50;7.68;;;;;;;30.81;42.56;96016.53;5120120;27;20047;-78
2021/08/14 11:04:37;;;;;;;10.18;7.50;;;;;;;31.11;41.65;96007.22;5118807;27;20122;-77
2021/08/14 11:07:20;;;;;;;13.02;7.28;;;;;;;30.98;41.46;96011.50;5119984;27;20050;-78
2021/08/14 11:10:06;;;;;;;;;;;;;;;31.45;42.73;96009.47;5119579;27;20039;-80
2021/08/14 11:12:50;;;;;;;12.70;7.47;;;;;;;31.11;40.61;96007.22;5120639;27;19919;-80
2021/08/14 11:15:29;;;;;;;15.02;8.10;;;;;;;31.59;40.34;96009.44;5116032;27;20051;-79
2021/08/14 11:17:59;;;;;;;16.85;8.18;;;;;;;31.20;40.82;95998.66;5119448;28;20031;-78
2021/08/14 11:20:25;;;;;;;16.40;8.07;;;;;;;31.24;41.36;95994.75;5121581;28;20039;-80
2021/08/14 11:22:52;;;;;;;12.88;7.68;;;;;;;32.01;39.60;95990.56;5124901;28;20080;-81
2021/08/14 11:25:30;;;;;;;17.02;8.15;;;;;;;32.09;38.73;95996.72;5118460;28;20073;-80
2021/08/14 11:28:05;;;;;;;14.77;7.72;;;;;;;32.16;40.01;95987.78;5128225;27;20038;-81